CheckWX is a tool to help pilots better visualize weather data.  It is not intended as a substitute for an official pre-flight weather briefing.

01:58:19 UTC

KLGD METAR
La Grande / Union County Airport
La Grande, Oregon, USA
Current

1 hour ago

KLGD 150056Z AUTO 22003KT 10SM CLR 09/M01 A3006 RMK AO2 SLP184 T00941006
Observed
Oct-15 @ 00:56 UTC
Wind
  • 220° at 3 KTS
Visibility
10 SM
Flight Rules
VFR
Cloud Levels
  • Clear skies
Temperature
C / 48°F
Dewpoint
-1°C / 30°F
Humidity
50%
Altimeter
30.06" Hg
Pressure
1017.92 hPa
Previous

2 hours ago

KLGD 142356Z AUTO 00000KT 10SM CLR 14/M01 A3006 RMK AO2 SLP179 T01441011 10150 20111 55002
Observed
Oct-14 @ 23:56 UTC
Visibility
10 SM
Flight Rules
VFR
Cloud Levels
  • Clear skies
Temperature
14°C / 57°F
Dewpoint
-1°C / 30°F
Humidity
36%
Altimeter
30.06" Hg
Pressure
1017.92 hPa
Previous

3 hours ago

KLGD 142256Z AUTO 04003KT 10SM CLR 15/M01 A3005 RMK AO2 SLP176 T01501011
Observed
Oct-14 @ 22:56 UTC
Wind
  • 040° at 3 KTS
Visibility
10 SM
Flight Rules
VFR
Cloud Levels
  • Clear skies
Temperature
15°C / 59°F
Dewpoint
-1°C / 30°F
Humidity
34%
Altimeter
30.05" Hg
Pressure
1017.62 hPa